^^
Grace C. Lehan Memorial Weather Station Historical Data
Daily Summary for August 2, 2021 Units:  Metric    English   Both
Daily Weekly Monthly Yearly
  High: Low: Average:
Temperature: 2.2 °C -0.4 °C 1 °C
Dew Point: 0.4 °C -2.7 °C -0.4 °C
Humidity: 96% 84% 90%
Wind Speed: 12.4km/h 0.2km/h 6.8km/h
Wind Gust: 35.4km/h - -
Wind- - South
Pressure: 1002.6 hPa 993.1 hPa -
Precipitation: 0.25 mm    
 
 
Tabular Data for August 2, 2021
Time Temperature Dew Point Pressure Wind Wind Speed Wind Gust Humidity Rainfall Rate (Hourly) solar
00:04 0.2 °C -0.6 °C 1002.6 hPa NNE 6 km/h 20.9 km/h 95% 0 mm 0 W/m2
00:09 0.2 °C -0.6 °C 1002.6 hPa North 8 km/h 22.5 km/h 95% 0 mm 0 W/m2
00:14 0.2 °C -0.5 °C 1002.3 hPa North 9.5 km/h 22.5 km/h 95.2% 0 mm 0 W/m2
00:19 0.2 °C -0.4 °C 1002.3 hPa North 8.5 km/h 22.5 km/h 95.6% 0 mm 0 W/m2
00:24 0.2 °C -0.4 °C 1002.3 hPa North 7.4 km/h 22.5 km/h 95.7% 0 mm 0 W/m2
00:29 0.2 °C -0.4 °C 1002.3 hPa NNE 8 km/h 22.5 km/h 95.7% 0 mm 0 W/m2
00:34 0.3 °C -0.3 °C 1002.3 hPa NNE 6.8 km/h 22.5 km/h 95.8% 0 mm 0 W/m2
00:39 0.3 °C -0.3 °C 1002.3 hPa North 7.9 km/h 17.7 km/h 95.8% 0 mm 0 W/m2
00:44 0.3 °C -0.3 °C 1001.9 hPa North 9.3 km/h 17.7 km/h 96% 0 mm 0 W/m2
00:49 0.3 °C -0.3 °C 1001.9 hPa North 9.5 km/h 20.9 km/h 96% 0 mm 0 W/m2
00:54 0.3 °C -0.3 °C 1001.9 hPa North 8.7 km/h 20.9 km/h 96% 0 mm 0 W/m2
00:59 0.3 °C -0.3 °C 1001.9 hPa North 8.9 km/h 20.9 km/h 96% 0 mm 0 W/m2
01:04 0.3 °C -0.3 °C 1001.9 hPa NNE 9.2 km/h 20.9 km/h 96% 0 mm 0 W/m2
01:09 0.3 °C -0.3 °C 1001.9 hPa North 7.4 km/h 19.3 km/h 96% 0 mm 0 W/m2
01:14 0.3 °C -0.3 °C 1001.9 hPa NNE 8.7 km/h 22.5 km/h 96% 0 mm 0 W/m2
01:19 0.3 °C -0.2 °C 1001.6 hPa NNE 8.7 km/h 22.5 km/h 96% 0 mm 0 W/m2
01:24 0.3 °C -0.2 °C 1001.6 hPa NNE 8.2 km/h 24.1 km/h 96% 0 mm 0 W/m2
01:29 0.3 °C -0.2 °C 1001.6 hPa NNE 9 km/h 24.1 km/h 96% 0 mm 0 W/m2
01:34 0.3 °C -0.2 °C 1001.6 hPa NNE 6.4 km/h 24.1 km/h 96% 0 mm 0 W/m2
01:39 0.3 °C -0.2 °C 1001.6 hPa North 10 km/h 20.9 km/h 96% 0 mm 0 W/m2
01:44 0.4 °C -0.3 °C 1001.6 hPa North 6.9 km/h 20.9 km/h 95.6% 0 mm 0 W/m2
01:49 0.4 °C -0.2 °C 1001.6 hPa NNE 9 km/h 20.9 km/h 95.7% 0 mm 0 W/m2
01:54 0.4 °C -0.3 °C 1001.2 hPa NNW 9.7 km/h 20.9 km/h 95.2% 0 mm 0 W/m2
01:59 0.4 °C -0.3 °C 1001.2 hPa North 7.1 km/h 20.9 km/h 95.2% 0 mm 0 W/m2
02:04 0.4 °C -0.2 °C 1001.2 hPa NNE 7.4 km/h 20.9 km/h 95.6% 0 mm 0 W/m2
02:09 0.4 °C -0.3 °C 1001.2 hPa NNE 6.1 km/h 16.1 km/h 95.5% 0 mm 0 W/m2
02:14 0.4 °C -0.2 °C 1001.2 hPa North 8.7 km/h 17.7 km/h 96% 0 mm 0 W/m2
02:19 0.3 °C -0.2 °C 1001.2 hPa NNE 8.2 km/h 17.7 km/h 95.9% 0 mm 0 W/m2
02:24 0.4 °C -0.2 °C 1001.2 hPa NNE 8.7 km/h 22.5 km/h 95.8% 0 mm 0 W/m2
02:29 0.4 °C -0.2 °C 1000.9 hPa North 9 km/h 24.1 km/h 95.6% 0 mm 0 W/m2
02:34 0.4 °C -0.2 °C 1000.9 hPa North 10.3 km/h 27.4 km/h 95.8% 0 mm 0 W/m2
02:39 0.4 °C -0.2 °C 1000.9 hPa North 9.8 km/h 27.4 km/h 95.6% 0 mm 0 W/m2
02:44 0.4 °C -0.2 °C 1000.9 hPa NNE 9 km/h 27.4 km/h 95.8% 0 mm 0 W/m2
02:49 0.4 °C -0.2 °C 1000.9 hPa NNE 8.4 km/h 27.4 km/h 95.5% 0 mm 0 W/m2
02:54 0.4 °C -0.2 °C 1000.6 hPa NNE 7.1 km/h 27.4 km/h 95.7% 0 mm 0 W/m2
02:59 0.4 °C -0.2 °C 1000.6 hPa NNE 8.2 km/h 27.4 km/h 95.2% 0 mm 0 W/m2
03:04 0.4 °C -0.2 °C 1000.6 hPa NNE 8.5 km/h 27.4 km/h 95.2% 0 mm 0 W/m2
03:09 0.4 °C -0.3 °C 1000.6 hPa NE 10.9 km/h 22.5 km/h 95% 0 mm 0 W/m2
03:14 0.4 °C -0.3 °C 1000.2 hPa NNE 9.5 km/h 24.1 km/h 95% 0 mm 0 W/m2
03:19 0.4 °C -0.2 °C 1000.2 hPa NNE 8.4 km/h 24.1 km/h 95% 0 mm 0 W/m2
03:24 0.4 °C -0.3 °C 999.9 hPa NNE 8.4 km/h 24.1 km/h 95% 0 mm 0 W/m2
03:29 0.4 °C -0.3 °C 999.9 hPa NNE 10.3 km/h 24.1 km/h 95% 0 mm 0 W/m2
03:34 0.4 °C -0.3 °C 999.9 hPa NNE 10.3 km/h 24.1 km/h 95% 0 mm 0 W/m2
03:39 0.4 °C -0.3 °C 999.5 hPa NNE 9.8 km/h 24.1 km/h 95% 0 mm 0 W/m2
03:44 0.4 °C -0.3 °C 999.9 hPa NNE 10.3 km/h 25.7 km/h 95% 0 mm 0 W/m2
03:49 0.4 °C -0.3 °C 999.5 hPa NNE 8.9 km/h 25.7 km/h 95% 0 mm 0 W/m2
03:54 0.4 °C -0.3 °C 999.5 hPa NNE 10 km/h 25.7 km/h 95% 0 mm 0 W/m2
03:59 0.4 °C -0.3 °C 999.5 hPa NNE 12.1 km/h 25.7 km/h 95% 0 mm 0 W/m2
04:04 0.4 °C -0.3 °C 999.5 hPa NE 6.9 km/h 25.7 km/h 95% 0 mm 0 W/m2
04:09 0.5 °C -0.2 °C 999.5 hPa NNE 10.5 km/h 22.5 km/h 95% 0 mm 0 W/m2
04:14 0.5 °C -0.2 °C 999.5 hPa North 11.1 km/h 22.5 km/h 95% 0 mm 0 W/m2
04:19 0.5 °C -0.2 °C 999.5 hPa NNE 11.1 km/h 24.1 km/h 95% 0 mm 0 W/m2
04:24 0.5 °C -0.2 °C 999.5 hPa NNE 10 km/h 35.4 km/h 94.7% 0 mm 0 W/m2
04:29 0.5 °C -0.3 °C 999.5 hPa NNE 8.7 km/h 35.4 km/h 94.3% 0 mm 0 W/m2
04:34 0.5 °C -0.3 °C 999.5 hPa NNE 8.5 km/h 35.4 km/h 94.1% 0 mm 0 W/m2
04:39 0.5 °C -0.3 °C 999.5 hPa NNE 11.7 km/h 25.7 km/h 94% 0 mm 0 W/m2
04:44 0.5 °C -0.3 °C 999.5 hPa NNE 9.5 km/h 25.7 km/h 94% 0 mm 0 W/m2
04:49 0.5 °C -0.3 °C 999.5 hPa NNE 11.4 km/h 25.7 km/h 94% 0 mm 0 W/m2
04:54 0.6 °C -0.3 °C 999.5 hPa North 11.9 km/h 32.2 km/h 93.8% 0 mm 0 W/m2
04:59 0.6 °C -0.4 °C 999.2 hPa North 9.5 km/h 32.2 km/h 93.3% 0 mm 0 W/m2
05:04 0.6 °C -0.4 °C 999.2 hPa North 9.8 km/h 32.2 km/h 93% 0 mm 0 W/m2
05:09 0.6 °C -0.4 °C 998.9 hPa North 10 km/h 24.1 km/h 93% 0 mm 0 W/m2
05:14 0.6 °C -0.4 °C 998.9 hPa North 10.9 km/h 30.6 km/h 93% 0 mm 0 W/m2
05:19 0.6 °C -0.4 °C 998.9 hPa NNW 8 km/h 30.6 km/h 93% 0 mm 0 W/m2
05:24 0.6 °C -0.4 °C 998.5 hPa North 10.9 km/h 30.6 km/h 93% 0 mm 0 W/m2
05:29 0.6 °C -0.5 °C 998.9 hPa North 10.6 km/h 30.6 km/h 92.5% 0 mm 0 W/m2
05:34 0.6 °C -0.6 °C 998.5 hPa North 9.7 km/h 30.6 km/h 92% 0 mm 0 W/m2
05:39 0.6 °C -0.6 °C 998.5 hPa NNE 9.5 km/h 27.4 km/h 92% 0 mm 0 W/m2
05:44 0.5 °C -0.6 °C 998.9 hPa North 7.9 km/h 27.4 km/h 92% 0 mm 0 W/m2
05:49 0.5 °C -0.7 °C 998.9 hPa North 6.6 km/h 27.4 km/h 92% 0 mm 0 W/m2
05:54 0.5 °C -0.7 °C 998.5 hPa NNE 7.6 km/h 27.4 km/h 92% 0 mm 0 W/m2
05:59 0.5 °C -0.7 °C 998.5 hPa North 7.9 km/h 27.4 km/h 92% 0 mm 0 W/m2
06:04 0.5 °C -0.7 °C 998.5 hPa North 8.9 km/h 27.4 km/h 92% 0 mm 0 W/m2
06:09 0.4 °C -0.7 °C 998.5 hPa North 6.8 km/h 19.3 km/h 92% 0 mm 0 W/m2
06:14 0.4 °C -0.7 °C 998.5 hPa NNE 7.1 km/h 19.3 km/h 92% 0 mm 0 W/m2
06:19 0.4 °C -0.7 °C 998.5 hPa North 8 km/h 19.3 km/h 92% 0 mm 0 W/m2
06:24 0.4 °C -0.7 °C 998.5 hPa North 7.4 km/h 19.3 km/h 92% 0 mm 0 W/m2
06:29 0.4 °C -0.7 °C 998.5 hPa North 8 km/h 20.9 km/h 92% 0 mm 0 W/m2
06:34 0.4 °C -0.8 °C 998.5 hPa NNE 8.4 km/h 20.9 km/h 91.6% 0 mm 0 W/m2
06:39 0.4 °C -0.8 °C 998.5 hPa North 7.9 km/h 20.9 km/h 91% 0 mm 0 W/m2
06:44 0.5 °C -0.8 °C 998.5 hPa NNE 9.3 km/h 20.9 km/h 91% 0 mm 0 W/m2
06:49 0.5 °C -0.8 °C 998.5 hPa North 12.4 km/h 25.7 km/h 91% 0 mm 0 W/m2
06:54 0.5 °C -0.8 °C 998.9 hPa North 9.2 km/h 25.7 km/h 91% 0 mm 0 W/m2
06:59 0.6 °C -0.8 °C 998.9 hPa North 9.3 km/h 25.7 km/h 90.7% 0 mm 0 W/m2
07:04 0.6 °C -0.9 °C 998.9 hPa North 9.7 km/h 29 km/h 90% 0 mm 0 W/m2
07:09 0.6 °C -0.9 °C 998.5 hPa NNE 9.3 km/h 29 km/h 90% 0 mm 0 W/m2
07:14 0.6 °C -0.8 °C 998.9 hPa NNE 6.4 km/h 29 km/h 90% 0 mm 0 W/m2
07:19 0.6 °C -0.8 °C 998.9 hPa North 5.6 km/h 29 km/h 90% 0 mm 0 W/m2
07:24 0.6 °C -0.8 °C 998.9 hPa North 9.5 km/h 29 km/h 90% 0 mm 0 W/m2
07:29 0.6 °C -0.8 °C 998.5 hPa North 9.8 km/h 29 km/h 90% 0 mm 0 W/m2
07:34 0.7 °C -0.8 °C 998.5 hPa NNE 9.7 km/h 29 km/h 90% 0 mm 0 W/m2
07:39 0.7 °C -0.8 °C 998.5 hPa North 10.1 km/h 24.1 km/h 89.8% 0 mm 0 W/m2
07:44 0.7 °C -0.9 °C 998.5 hPa North 9 km/h 24.1 km/h 89% 0 mm 0 W/m2
07:49 0.7 °C -0.9 °C 998.5 hPa North 11.4 km/h 27.4 km/h 89% 0 mm 0 W/m2
07:54 0.7 °C -0.9 °C 998.5 hPa NNE 9.5 km/h 27.4 km/h 89% 0 mm 0 W/m2
07:59 0.7 °C -0.9 °C 998.2 hPa North 8.7 km/h 27.4 km/h 89% 0 mm 0 W/m2
08:00 0.7 °C -0.9 °C 998.2 hPa North 6.4 km/h 27.4 km/h 89% 0 mm 0 W/m2
08:09 0.8 °C -0.8 °C 998.2 hPa NNW 10.8 km/h 25.7 km/h 89% 0 mm 0 W/m2
08:14 0.8 °C -0.8 °C 998.2 hPa North 10 km/h 25.7 km/h 89% 0 mm 0 W/m2
08:19 0.8 °C -0.8 °C 998.2 hPa North 11.3 km/h 25.7 km/h 89% 0 mm 0 W/m2
08:24 0.8 °C -0.9 °C 998.2 hPa North 10.3 km/h 25.7 km/h 88.3% 0 mm 0 W/m2
08:29 0.8 °C -0.9 °C 998.2 hPa North 7.2 km/h 25.7 km/h 88% 0 mm 0 W/m2
08:34 0.8 °C -0.8 °C 998.2 hPa North 8.7 km/h 25.7 km/h 88.6% 0 mm 0 W/m2
08:39 0.8 °C -0.8 °C 997.9 hPa North 8.7 km/h 20.9 km/h 89% 0 mm 0 W/m2
08:44 0.8 °C -0.8 °C 997.9 hPa North 8 km/h 20.9 km/h 89% 0 mm 0 W/m2
08:49 0.8 °C -0.8 °C 997.9 hPa North 8.4 km/h 20.9 km/h 89% 0 mm 5 W/m2
08:54 0.8 °C -0.8 °C 997.9 hPa NNE 8.7 km/h 20.9 km/h 89% 0 mm 5 W/m2
08:59 0.8 °C -0.8 °C 997.5 hPa North 8.9 km/h 20.9 km/h 89% 0 mm 5 W/m2
09:04 0.8 °C -0.8 °C 997.5 hPa North 11.9 km/h 30.6 km/h 88.5% 0 mm 5 W/m2
09:09 0.8 °C -0.9 °C 997.5 hPa North 9.2 km/h 30.6 km/h 88% 0 mm 5 W/m2
09:14 0.8 °C -0.9 °C 997.5 hPa North 7.6 km/h 30.6 km/h 88% 0 mm 5 W/m2
09:19 0.8 °C -0.8 °C 997.5 hPa NNE 8.5 km/h 30.6 km/h 88.7% 0 mm 5 W/m2
09:24 0.8 °C -0.8 °C 997.5 hPa North 8.2 km/h 30.6 km/h 89% 0 mm 7 W/m2
09:29 0.8 °C -0.7 °C 997.2 hPa North 6.4 km/h 30.6 km/h 89% 0 mm 7 W/m2
09:34 0.9 °C -0.7 °C 997.5 hPa North 7.7 km/h 30.6 km/h 89% 0 mm 7 W/m2
09:39 0.9 °C -0.7 °C 997.2 hPa NNW 10 km/h 20.9 km/h 89% 0 mm 7 W/m2
09:44 0.9 °C -0.7 °C 997.2 hPa North 6.3 km/h 24.1 km/h 89% 0 mm 9 W/m2
09:49 0.9 °C -0.7 °C 997.2 hPa North 6.8 km/h 24.1 km/h 89% 0 mm 9 W/m2
09:54 0.9 °C -0.7 °C 997.2 hPa North 7.2 km/h 24.1 km/h 89% 0 mm 9 W/m2
09:59 0.9 °C -0.7 °C 997.2 hPa NNE 7.7 km/h 24.1 km/h 89% 0 mm 9 W/m2
10:04 0.9 °C -0.7 °C 997.2 hPa NNE 6 km/h 24.1 km/h 89% 0 mm 7 W/m2
10:09 0.9 °C -0.7 °C 997.2 hPa North 10.1 km/h 29 km/h 89% 0 mm 9 W/m2
10:14 1 °C -0.6 °C 996.8 hPa North 6.9 km/h 29 km/h 89% 0 mm 11 W/m2
10:19 1 °C -0.6 °C 996.8 hPa NNE 8 km/h 29 km/h 89% 0 mm 11 W/m2
10:24 1 °C -0.6 °C 997.2 hPa North 9.2 km/h 29 km/h 88.8% 0 mm 12 W/m2
10:29 1.1 °C -0.6 °C 997.2 hPa North 5.1 km/h 29 km/h 89% 0 mm 11 W/m2
10:34 1.1 °C -0.6 °C 997.2 hPa North 10 km/h 29 km/h 88.8% 0 mm 11 W/m2
10:39 1.1 °C -0.7 °C 996.8 hPa NNE 5.3 km/h 20.9 km/h 88% 0 mm 9 W/m2
10:44 1.1 °C -0.7 °C 996.8 hPa North 7.6 km/h 20.9 km/h 88% 0 mm 9 W/m2
10:49 1.1 °C -0.7 °C 996.8 hPa North 8 km/h 20.9 km/h 88% 0 mm 12 W/m2
10:54 1.2 °C -0.6 °C 996.8 hPa North 6.4 km/h 20.9 km/h 88% 0 mm 14 W/m2
10:59 1.2 °C -0.6 °C 996.8 hPa NNE 6 km/h 25.7 km/h 88% 0 mm 12 W/m2
11:04 1.2 °C -0.6 °C 996.8 hPa NNW 4 km/h 25.7 km/h 88% 0 mm 12 W/m2
11:09 1.3 °C -0.5 °C 996.8 hPa North 5.1 km/h 20.9 km/h 88% 0 mm 12 W/m2
11:14 1.3 °C -0.5 °C 996.5 hPa North 5.5 km/h 20.9 km/h 88% 0 mm 12 W/m2
11:19 1.3 °C -0.5 °C 996.5 hPa NNE 5.1 km/h 20.9 km/h 88% 0 mm 14 W/m2
11:24 1.3 °C -0.4 °C 996.5 hPa North 6.9 km/h 20.9 km/h 88% 0 mm 14 W/m2
11:29 1.3 °C -0.4 °C 996.2 hPa North 5.6 km/h 20.9 km/h 88% 0 mm 14 W/m2
11:34 1.4 °C -0.3 °C 996.2 hPa North 5.5 km/h 20.9 km/h 88% 0 mm 14 W/m2
11:39 1.4 °C -0.3 °C 996.2 hPa NNE 8 km/h 20.9 km/h 88% 0 mm 14 W/m2
11:44 1.4 °C -0.3 °C 995.8 hPa North 10.8 km/h 20.9 km/h 88% 0 mm 14 W/m2
11:49 1.5 °C -0.3 °C 995.8 hPa North 8.2 km/h 24.1 km/h 88% 0 mm 14 W/m2
11:54 1.5 °C -0.2 °C 995.8 hPa NNE 8.2 km/h 24.1 km/h 88% 0 mm 14 W/m2
11:59 1.5 °C -0.2 °C 995.5 hPa North 10.6 km/h 24.1 km/h 88% 0 mm 12 W/m2
12:09 1.5 °C -0.3 °C 995.5 hPa NE 7.9 km/h 30.6 km/h 88% 0 mm 12 W/m2
12:14 1.5 °C -0.3 °C 995.5 hPa NNE 8.9 km/h 30.6 km/h 88% 0 mm 12 W/m2
12:19 1.5 °C -0.3 °C 995.5 hPa North 8.5 km/h 30.6 km/h 88% 0 mm 14 W/m2
12:24 1.6 °C -0.2 °C 995.5 hPa North 8.5 km/h 30.6 km/h 88% 0 mm 14 W/m2
12:28 1.6 °C -0.2 °C 995.1 hPa NNW 5.3 km/h 30.6 km/h 88% 0 mm 14 W/m2
12:39 1.6 °C -0.1 °C 995.5 hPa North 6.4 km/h 25.7 km/h 88.5% 0 mm 13 W/m2
12:44 1.7 °C 0 °C 995.1 hPa North 6.1 km/h 16.1 km/h 89% 0 mm 14 W/m2
12:49 1.7 °C 0.1 °C 995.1 hPa NNE 5.3 km/h 17.7 km/h 89% 0 mm 14 W/m2
12:54 1.6 °C -0.1 °C 995.1 hPa NNE 5.6 km/h 24.1 km/h 88.2% 0 mm 12 W/m2
12:59 1.6 °C -0.1 °C 995.1 hPa North 6.3 km/h 24.1 km/h 88.8% 0 mm 12 W/m2
13:04 1.6 °C -0.1 °C 994.8 hPa North 7.7 km/h 24.1 km/h 89% 0 mm 12 W/m2
13:09 1.6 °C 0 °C 994.8 hPa NNE 3.2 km/h 20.9 km/h 89% 0 mm 14 W/m2
13:14 1.6 °C 0 °C 994.8 hPa North 10.3 km/h 20.9 km/h 89% 0 mm 12 W/m2
13:19 1.7 °C 0.1 °C 994.8 hPa North 7.4 km/h 20.9 km/h 89% 0 mm 14 W/m2
13:24 1.7 °C -0.1 °C 994.8 hPa North 12.4 km/h 25.7 km/h 88.2% 0 mm 14 W/m2
13:29 1.7 °C -0.1 °C 994.5 hPa NNE 6.3 km/h 25.7 km/h 88% 0 mm 16 W/m2
13:34 1.8 °C 0 °C 994.5 hPa North 5.1 km/h 25.7 km/h 88% 0 mm 16 W/m2
13:39 1.8 °C 0.1 °C 994.5 hPa NNW 11.7 km/h 29 km/h 87.8% 0 mm 16 W/m2
13:44 1.8 °C -0.1 °C 994.5 hPa North 6.8 km/h 29 km/h 87% 0 mm 16 W/m2
13:49 1.9 °C -0.1 °C 994.5 hPa North 7.2 km/h 29 km/h 87% 0 mm 16 W/m2
13:54 1.9 °C 0 °C 994.1 hPa North 7.9 km/h 29 km/h 87% 0 mm 16 W/m2
13:59 2 °C 0.1 °C 994.1 hPa North 7.6 km/h 29 km/h 86.8% 0 mm 14 W/m2
14:04 2.1 °C -0.1 °C 994.1 hPa North 7.2 km/h 30.6 km/h 86% 0 mm 12 W/m2
14:09 2 °C -0.1 °C 994.1 hPa North 5.6 km/h 30.6 km/h 86% 0 mm 12 W/m2
14:14 2.1 °C -0.1 °C 994.1 hPa North 4.5 km/h 30.6 km/h 86% 0 mm 14 W/m2
14:19 2.1 °C -0.1 °C 994.1 hPa North 10.8 km/h 30.6 km/h 86% 0 mm 14 W/m2
14:24 2.1 °C -0.1 °C 994.1 hPa North 4.8 km/h 30.6 km/h 86% 0 mm 12 W/m2
14:29 2.1 °C -0.1 °C 993.8 hPa NNE 5.6 km/h 30.6 km/h 86% 0 mm 12 W/m2
14:34 2.1 °C -0.1 °C 993.8 hPa NNE 5 km/h 30.6 km/h 86% 0 mm 12 W/m2
14:39 2.1 °C -0.1 °C 993.8 hPa North 2.6 km/h 16.1 km/h 85.7% 0 mm 12 W/m2
14:44 2.1 °C 0 °C 993.8 hPa North 5.8 km/h 17.7 km/h 86% 0 mm 11 W/m2
14:49 2.2 °C 0.1 °C 993.8 hPa North 6.4 km/h 22.5 km/h 86% 0 mm 11 W/m2
14:54 2.2 °C -0.1 °C 994.1 hPa North 7.1 km/h 33.8 km/h 85.2% 0 mm 11 W/m2
14:59 2.2 °C -0.1 °C 994.1 hPa North 7.4 km/h 33.8 km/h 85% 0 mm 9 W/m2
15:04 2.2 °C -0.1 °C 993.8 hPa North 7.2 km/h 33.8 km/h 85% 0 mm 9 W/m2
15:09 2.1 °C -0.2 °C 993.8 hPa NNW 8.9 km/h 24.1 km/h 85% 0 mm 7 W/m2
15:14 2.1 °C -0.2 °C 993.5 hPa NNE 7.2 km/h 24.1 km/h 85% 0 mm 7 W/m2
15:19 2 °C -0.3 °C 993.8 hPa North 12.2 km/h 27.4 km/h 85% 0 mm 7 W/m2
15:24 2 °C -0.3 °C 993.8 hPa North 11.3 km/h 27.4 km/h 85% 0 mm 7 W/m2
15:29 1.9 °C -0.2 °C 993.8 hPa NNW 7.1 km/h 27.4 km/h 85.8% 0 mm 7 W/m2
15:34 1.9 °C -0.2 °C 993.8 hPa NNW 7.9 km/h 27.4 km/h 86% 0 mm 7 W/m2
15:39 2 °C -0.1 °C 993.8 hPa NNW 7.2 km/h 20.9 km/h 86% 0 mm 7 W/m2
15:44 2 °C -0.1 °C 993.8 hPa NNW 10.9 km/h 20.9 km/h 86% 0.25 mm 7 W/m2
15:49 1.9 °C -0.2 °C 993.5 hPa NNW 10.6 km/h 22.5 km/h 86% 0.25 mm 7 W/m2
15:54 1.9 °C -0.2 °C 993.5 hPa North 6.9 km/h 22.5 km/h 86% 0.25 mm 5 W/m2
15:58 1.9 °C -0.1 °C 993.5 hPa NNW 4 km/h 22.5 km/h 86.5% 0.25 mm 5 W/m2
16:04 1.9 °C -0.1 °C 993.5 hPa NNW 10 km/h 16.1 km/h 87% 0.25 mm 0 W/m2
16:09 1.9 °C -0.1 °C 993.5 hPa North 10 km/h 25.7 km/h 87% 0.25 mm 0 W/m2
16:14 1.8 °C -0.1 °C 993.5 hPa NNE 1.9 km/h 25.7 km/h 87% 0.25 mm 0 W/m2
16:19 1.8 °C -0.2 °C 993.5 hPa NNW 4.8 km/h 25.7 km/h 87% 0.25 mm 0 W/m2
16:24 1.8 °C -0.2 °C 993.5 hPa NNW 7.9 km/h 25.7 km/h 87% 0.25 mm 0 W/m2
16:29 1.8 °C -0.2 °C 993.5 hPa North 7.2 km/h 25.7 km/h 87% 0.25 mm 0 W/m2
16:34 1.8 °C -0.2 °C 993.5 hPa NNW 9.8 km/h 25.7 km/h 87% 0.25 mm 0 W/m2
16:39 1.7 °C -0.2 °C 993.5 hPa NNW 5 km/h 22.5 km/h 87% 0.25 mm 0 W/m2
16:44 1.7 °C -0.2 °C 993.8 hPa NNW 7.9 km/h 25.7 km/h 87% 0.25 mm 0 W/m2
16:49 1.7 °C -0.1 °C 993.5 hPa NNW 5 km/h 25.7 km/h 87.5% 0.25 mm 0 W/m2
16:54 1.7 °C -0.1 °C 993.8 hPa NNW 5.6 km/h 25.7 km/h 88% 0.25 mm 0 W/m2
16:59 1.7 °C -0.1 °C 993.8 hPa North 5.6 km/h 25.7 km/h 88% 0.25 mm 0 W/m2
17:04 1.7 °C -0.1 °C 993.8 hPa NNE 5.5 km/h 25.7 km/h 88% 0.25 mm 0 W/m2
17:09 1.7 °C -0.1 °C 993.8 hPa North 4.3 km/h 24.1 km/h 88% 0 mm 0 W/m2
17:14 1.8 °C 0.1 °C 993.8 hPa NNW 8.5 km/h 24.1 km/h 88.5% 0 mm 0 W/m2
17:19 1.8 °C 0.2 °C 993.8 hPa North 7.9 km/h 24.1 km/h 89% 0 mm 0 W/m2
17:24 1.8 °C 0.2 °C 993.8 hPa North 6 km/h 24.1 km/h 89% 0 mm 0 W/m2
17:29 1.9 °C 0.3 °C 993.8 hPa North 4.5 km/h 24.1 km/h 89% 0 mm 0 W/m2
17:34 1.9 °C 0.3 °C 993.8 hPa North 3.4 km/h 24.1 km/h 89% 0 mm 0 W/m2
17:39 1.8 °C 0.2 °C 993.8 hPa North 5.6 km/h 16.1 km/h 89% 0 mm 0 W/m2
17:44 1.8 °C 0.2 °C 993.8 hPa North 3.9 km/h 17.7 km/h 89% 0 mm 0 W/m2
17:49 1.8 °C 0.2 °C 993.8 hPa NNW 5 km/h 17.7 km/h 89% 0 mm 0 W/m2
17:54 1.7 °C 0.1 °C 993.8 hPa NNW 6.6 km/h 19.3 km/h 89% 0 mm 0 W/m2
17:59 1.7 °C 0.2 °C 993.8 hPa NNW 7.4 km/h 19.3 km/h 89.7% 0 mm 0 W/m2
18:04 1.7 °C 0.2 °C 993.8 hPa NNW 3.2 km/h 19.3 km/h 90% 0 mm 0 W/m2
18:09 1.7 °C 0.2 °C 993.8 hPa North 4.3 km/h 14.5 km/h 90% 0 mm 0 W/m2
18:14 1.7 °C 0.2 °C 993.8 hPa NNW 4.5 km/h 24.1 km/h 90% 0 mm 0 W/m2
18:19 1.7 °C 0.2 °C 993.8 hPa North 5.8 km/h 24.1 km/h 90% 0 mm 0 W/m2
18:24 1.7 °C 0.2 °C 993.8 hPa North 5 km/h 24.1 km/h 90% 0 mm 0 W/m2
18:29 1.7 °C 0.2 °C 994.1 hPa NNW 4.3 km/h 24.1 km/h 90% 0 mm 0 W/m2
18:34 1.7 °C 0.2 °C 993.8 hPa North 2.9 km/h 24.1 km/h 90% 0 mm 0 W/m2
18:39 1.7 °C 0.3 °C 993.8 hPa North 2.1 km/h 14.5 km/h 90% 0 mm 0 W/m2
18:44 1.7 °C 0.3 °C 993.8 hPa NNW 5 km/h 16.1 km/h 90% 0 mm 0 W/m2
18:49 1.7 °C 0.3 °C 993.8 hPa North 0.3 km/h 16.1 km/h 90% 0 mm 0 W/m2
18:54 1.7 °C 0.3 °C 993.8 hPa North 7.7 km/h 24.1 km/h 90% 0 mm 0 W/m2
18:59 1.7 °C 0.3 °C 993.8 hPa NNW 3.7 km/h 24.1 km/h 90% 0 mm 0 W/m2
19:04 1.7 °C 0.3 °C 993.8 hPa NNW 2.6 km/h 24.1 km/h 90% 0 mm 0 W/m2
19:09 1.7 °C 0.4 °C 993.8 hPa NNW 5 km/h 22.5 km/h 90.9% 0 mm 0 W/m2
19:14 1.7 °C 0.4 °C 993.8 hPa NNW 4.3 km/h 22.5 km/h 91% 0 mm 0 W/m2
19:19 1.7 °C 0.4 °C 993.8 hPa NNW 2.3 km/h 22.5 km/h 91% 0 mm 0 W/m2
19:24 1.7 °C 0.4 °C 993.8 hPa NNW 0.8 km/h 22.5 km/h 91% 0 mm 0 W/m2
19:29 1.7 °C 0.4 °C 993.8 hPa NNW 2.4 km/h 22.5 km/h 91% 0 mm 0 W/m2
19:34 1.7 °C 0.4 °C 993.8 hPa North 2.1 km/h 22.5 km/h 91% 0 mm 0 W/m2
19:39 1.7 °C 0.4 °C 993.8 hPa North 2.7 km/h 16.1 km/h 91% 0 mm 0 W/m2
19:44 1.7 °C 0.3 °C 993.8 hPa NW 2.3 km/h 16.1 km/h 91% 0 mm 0 W/m2
19:49 1.7 °C 0.3 °C 993.8 hPa NW 0.2 km/h 16.1 km/h 91% 0 mm 0 W/m2
19:54 1.7 °C 0.3 °C 993.8 hPa NW 2.1 km/h 19.3 km/h 91% 0 mm 0 W/m2
19:59 1.7 °C 0.3 °C 993.8 hPa NNW 6.8 km/h 20.9 km/h 91% 0 mm 0 W/m2
20:04 1.7 °C 0.3 °C 993.5 hPa North 1.6 km/h 3.2 km/h 91% 0 mm 0 W/m2
20:09 1.7 °C 0.3 °C 993.8 hPa NNW 4.2 km/h 16.1 km/h 91% 0 mm 0 W/m2
20:14 1.7 °C 0.3 °C 993.8 hPa NNW 1.6 km/h 16.1 km/h 91% 0 mm 0 W/m2
20:19 1.7 °C 0.3 °C 993.5 hPa NNW 4 km/h 16.1 km/h 91% 0 mm 0 W/m2
20:24 1.6 °C 0.3 °C 993.8 hPa NNW 1.4 km/h 16.1 km/h 91% 0 mm 0 W/m2
20:29 1.6 °C 0.3 °C 993.8 hPa North 3.7 km/h 16.1 km/h 91% 0 mm 0 W/m2
20:34 1.6 °C 0.4 °C 993.5 hPa NNW 0.5 km/h 16.1 km/h 91.8% 0 mm 0 W/m2
20:39 1.6 °C 0.4 °C 993.5 hPa NNW 3.4 km/h 16.1 km/h 92% 0 mm 0 W/m2
20:44 1.6 °C 0.4 °C 993.5 hPa NNW 5.3 km/h 16.1 km/h 92% 0 mm 0 W/m2
20:49 1.4 °C 0.3 °C 993.5 hPa North 1.8 km/h 16.1 km/h 92% 0 mm 0 W/m2
20:54 1.4 °C 0.3 °C 993.5 hPa NNW 2.6 km/h 16.1 km/h 92% 0 mm 0 W/m2
20:59 1.4 °C 0.2 °C 993.5 hPa NNW 2.4 km/h 16.1 km/h 92% 0 mm 0 W/m2
21:04 1.4 °C 0.2 °C 993.5 hPa NW 3.4 km/h 16.1 km/h 92% 0 mm 0 W/m2
21:09 1.3 °C 0.1 °C 993.5 hPa WNW 4.7 km/h 14.5 km/h 91.9% 0 mm 0 W/m2
21:14 1.1 °C -0.2 °C 993.5 hPa WNW 1.8 km/h 14.5 km/h 91% 0 mm 0 W/m2
21:19 0.9 °C -0.3 °C 993.5 hPa WNW 1 km/h 14.5 km/h 91% 0 mm 0 W/m2
21:24 0.8 °C -0.5 °C 993.5 hPa WNW 0.3 km/h 14.5 km/h 91% 0 mm 0 W/m2
21:29 0.7 °C -0.6 °C 993.5 hPa WNW 1.1 km/h 14.5 km/h 91% 0 mm 0 W/m2
21:34 0.7 °C -0.6 °C 993.5 hPa NNW 1 km/h 14.5 km/h 91% 0 mm 0 W/m2
21:39 0.7 °C -0.7 °C 993.5 hPa NW 2.4 km/h 11.3 km/h 91% 0 mm 0 W/m2
21:44 0.6 °C -0.8 °C 993.5 hPa WNW 3.1 km/h 11.3 km/h 91% 0 mm 0 W/m2
21:49 0.4 °C -0.9 °C 993.5 hPa WNW 4 km/h 11.3 km/h 91% 0 mm 0 W/m2
21:54 0.3 °C -1 °C 993.1 hPa WNW 4.7 km/h 16.1 km/h 91% 0 mm 0 W/m2
21:59 0.2 °C -1.1 °C 993.5 hPa NW 2.6 km/h 16.1 km/h 91% 0 mm 0 W/m2
22:04 0.1 °C -1.2 °C 993.5 hPa NW 3.9 km/h 16.1 km/h 91% 0 mm 0 W/m2
22:09 0.1 °C -1.2 °C 993.5 hPa WNW 3.7 km/h 14.5 km/h 91% 0 mm 0 W/m2
22:14 0 °C -1.3 °C 993.5 hPa WNW 3.4 km/h 17.7 km/h 91% 0 mm 0 W/m2
22:19 -0.1 °C -1.4 °C 993.5 hPa WNW 2.6 km/h 17.7 km/h 90.4% 0 mm 0 W/m2
22:24 -0.1 °C -1.6 °C 993.5 hPa WNW 3.5 km/h 17.7 km/h 90% 0 mm 0 W/m2
22:29 -0.2 °C -1.6 °C 993.5 hPa WNW 3.5 km/h 17.7 km/h 89.8% 0 mm 0 W/m2
22:34 -0.2 °C -1.8 °C 993.5 hPa WNW 3.1 km/h 17.7 km/h 89% 0 mm 0 W/m2
22:39 -0.2 °C -1.8 °C 993.5 hPa NW 1.6 km/h 11.3 km/h 88.8% 0 mm 0 W/m2
22:44 -0.2 °C -1.9 °C 993.5 hPa WNW 3.5 km/h 17.7 km/h 88% 0 mm 0 W/m2
22:49 -0.1 °C -1.9 °C 993.5 hPa WNW 1.8 km/h 17.7 km/h 88% 0 mm 0 W/m2
22:54 -0.1 °C -2 °C 993.5 hPa WNW 2.1 km/h 17.7 km/h 87.2% 0 mm 0 W/m2
22:59 -0.1 °C -2 °C 993.5 hPa NW 0.6 km/h 17.7 km/h 87% 0 mm 0 W/m2
23:00 -0.1 °C -2 °C 993.5 hPa NW 2.4 km/h 17.7 km/h 87% 0 mm 0 W/m2
23:09 -0.1 °C -2.2 °C 993.8 hPa WNW 3.7 km/h 14.5 km/h 86% 0 mm 0 W/m2
23:14 -0.2 °C -2.3 °C 993.8 hPa WNW 3.4 km/h 14.5 km/h 85.3% 0 mm 0 W/m2
23:19 -0.2 °C -2.4 °C 993.8 hPa NW 1.4 km/h 14.5 km/h 85% 0 mm 0 W/m2
23:24 -0.2 °C -2.4 °C 994.1 hPa NW 1 km/h 14.5 km/h 85% 0 mm 0 W/m2
23:29 -0.2 °C -2.5 °C 994.1 hPa WNW 1.8 km/h 14.5 km/h 84.7% 0 mm 0 W/m2
23:34 -0.3 °C -2.7 °C 993.8 hPa WNW 3.5 km/h 14.5 km/h 84% 0 mm 0 W/m2
23:39 -0.3 °C -2.7 °C 993.8 hPa WNW 1.1 km/h 6.4 km/h 84% 0 mm 0 W/m2
23:44 -0.3 °C -2.7 °C 994.1 hPa WNW 2.7 km/h 11.3 km/h 84% 0 mm 0 W/m2
23:49 -0.3 °C -2.7 °C 994.1 hPa WNW 4.2 km/h 16.1 km/h 84% 0 mm 0 W/m2
23:54 -0.3 °C -2.7 °C 994.1 hPa WNW 4 km/h 16.1 km/h 84% 0 mm 0 W/m2
23:59 -0.4 °C -2.7 °C 994.1 hPa WNW 2.6 km/h 16.1 km/h 84% 0 mm 0 W/m2
Hartford County Weather
Compliments of Weather Underground - 2 mb